Time;durP1;ratioP1;P1;durP2;ratioP2;P2;SDS_P1;SDS_P2;PMS_P1;PMS_P2;Temp;Humidity;BMP_temperature;BMP_pressure;BME280_temperature;BME280_humidity;BME280_pressure;Samples;Min_cycle;Max_cycle;Signal;HPM_P1;HPM_P2
2023/02/23 00:01:28;;;;;;;42.65;22.00;;;7.80;99.90;;;;;;5069180;28;20096;-44
2023/02/23 00:03:56;;;;;;;42.80;22.50;;;7.80;99.90;;;;;;5069635;28;20043;-43
2023/02/23 00:06:23;;;;;;;46.88;23.90;;;7.80;99.90;;;;;;5069300;28;20055;-43
2023/02/23 00:08:51;;;;;;;44.17;23.15;;;7.80;99.90;;;;;;5070236;28;20040;-46
2023/02/23 00:11:17;;;;;;;42.75;21.58;;;7.80;99.90;;;;;;5070440;28;20074;-43
2023/02/23 00:13:48;;;;;;;44.63;21.92;;;7.80;99.90;;;;;;5070423;28;20021;-43
2023/02/23 00:16:25;;;;;;;52.58;23.67;;;7.80;99.90;;;;;;5070394;28;20021;-43
2023/02/23 00:18:53;;;;;;;44.15;22.40;;;7.70;99.90;;;;;;5070102;28;20088;-46
2023/02/23 00:21:21;;;;;;;53.45;24.90;;;7.70;99.90;;;;;;5069768;28;20051;-44
2023/02/23 00:23:53;;;;;;;40.83;21.30;;;7.70;99.90;;;;;;5069708;28;20023;-43
2023/02/23 00:26:19;;;;;;;43.08;21.77;;;7.70;99.90;;;;;;5070112;28;20032;-45
2023/02/23 00:28:47;;;;;;;46.22;22.13;;;7.70;99.90;;;;;;5068624;28;20039;-42
2023/02/23 00:31:13;;;;;;;41.75;20.52;;;7.70;99.90;;;;;;5069780;28;20095;-46
2023/02/23 00:33:39;;;;;;;39.97;21.70;;;7.70;99.90;;;;;;5069077;28;20085;-45
2023/02/23 00:36:11;;;;;;;43.15;22.08;;;7.70;99.90;;;;;;5069420;28;20023;-42
2023/02/23 00:38:38;;;;;;;45.38;22.13;;;7.70;99.90;;;;;;5069811;28;20485;-45
2023/02/23 00:41:10;;;;;;;39.92;21.17;;;7.70;99.90;;;;;;5069981;28;20110;-44
2023/02/23 00:43:37;;;;;;;46.95;21.88;;;7.70;99.90;;;;;;5069404;28;20115;-45
2023/02/23 00:46:04;;;;;;;39.42;20.08;;;7.60;99.90;;;;;;5069821;28;20473;-44
2023/02/23 00:48:34;;;;;;;40.05;21.42;;;7.60;99.90;;;;;;5069552;28;20028;-43
2023/02/23 00:51:02;;;;;;;41.07;20.07;;;7.60;99.90;;;;;;5069874;28;20405;-43
2023/02/23 00:53:28;;;;;;;36.35;19.83;;;7.60;99.90;;;;;;5066991;28;20017;-44
2023/02/23 00:55:55;;;;;;;34.30;18.27;;;7.50;99.90;;;;;;5069562;28;20070;-43
2023/02/23 00:58:24;;;;;;;38.53;19.50;;;7.50;99.90;;;;;;5069329;28;20031;-44
2023/02/23 01:00:50;;;;;;;36.25;18.63;;;7.50;99.90;;;;;;5067974;28;20115;-43
2023/02/23 01:03:16;;;;;;;34.38;18.63;;;7.50;99.90;;;;;;5068323;28;20107;-46
2023/02/23 01:05:42;;;;;;;37.08;19.55;;;7.50;99.90;;;;;;5069101;28;20036;-47
2023/02/23 01:08:09;;;;;;;37.03;19.05;;;7.40;99.90;;;;;;5069137;28;20478;-43
2023/02/23 01:10:40;;;;;;;36.70;18.65;;;7.40;99.90;;;;;;5069384;28;20089;-43
2023/02/23 01:13:05;;;;;;;35.40;18.27;;;7.40;99.90;;;;;;5069080;28;20028;-43
2023/02/23 01:15:31;;;;;;;37.10;19.27;;;7.40;99.90;;;;;;5069395;28;20017;-44
2023/02/23 01:17:57;;;;;;;31.15;17.60;;;7.30;99.90;;;;;;5069122;28;20081;-43
2023/02/23 01:20:22;;;;;;;30.77;17.35;;;7.30;99.90;;;;;;5069369;28;20439;-44
2023/02/23 01:22:50;;;;;;;30.60;17.35;;;7.30;99.90;;;;;;5067129;28;20051;-44
2023/02/23 01:25:17;;;;;;;30.27;16.40;;;7.30;99.90;;;;;;5069009;28;20028;-43
2023/02/23 01:27:44;;;;;;;32.72;16.77;;;7.20;99.90;;;;;;5069148;28;20024;-44
2023/02/23 01:30:13;;;;;;;29.73;15.65;;;7.20;99.90;;;;;;5069151;28;20471;-44
2023/02/23 01:32:39;;;;;;;33.03;16.83;;;7.10;99.90;;;;;;5068311;28;20051;-43
2023/02/23 01:35:07;;;;;;;27.08;13.98;;;7.10;99.90;;;;;;5069045;28;20052;-44
2023/02/23 01:37:34;;;;;;;31.58;16.45;;;7.10;99.90;;;;;;5068475;28;20032;-44
2023/02/23 01:40:05;;;;;;;28.40;15.18;;;7.10;99.90;;;;;;5068750;28;20021;-44
2023/02/23 01:42:30;;;;;;;35.20;17.77;;;7.10;99.90;;;;;;5068090;28;20426;-46
2023/02/23 01:45:36;;;;;;;28.83;16.40;;;7.00;99.90;;;;;;5068817;28;20066;-43
2023/02/23 01:48:13;;;;;;;28.58;15.82;;;7.00;99.90;;;;;;5005799;28;20049;-43
2023/02/23 01:50:47;;;;;;;28.67;15.88;;;7.00;99.90;;;;;;5062420;28;20028;-43
2023/02/23 01:53:14;;;;;;;31.30;17.17;;;7.00;99.90;;;;;;5068543;28;20053;-42
2023/02/23 01:55:41;;;;;;;28.25;15.25;;;6.90;99.90;;;;;;5068630;28;20410;-44
2023/02/23 01:58:14;;;;;;;33.42;17.33;;;6.90;99.90;;;;;;5067354;28;20490;-44
2023/02/23 02:00:43;;;;;;;27.88;14.88;;;6.90;99.90;;;;;;5067395;28;20397;-44
2023/02/23 02:03:14;;;;;;;28.48;16.20;;;6.90;99.90;;;;;;5068660;28;20439;-46
2023/02/23 02:05:40;;;;;;;29.90;16.23;;;6.90;99.90;;;;;;5072626;28;20115;-43
2023/02/23 02:08:09;;;;;;;34.00;17.10;;;6.90;99.90;;;;;;5072750;28;20478;-44
2023/02/23 02:10:38;;;;;;;32.70;16.77;;;6.80;99.90;;;;;;5072495;28;20021;-44
2023/02/23 02:13:06;;;;;;;34.53;17.38;;;6.80;99.90;;;;;;5072656;28;20082;-46
2023/02/23 02:15:39;;;;;;;33.88;16.98;;;6.80;99.90;;;;;;5072736;28;20439;-45
2023/02/23 02:18:29;;;;;;;30.15;16.38;;;6.80;99.90;;;;;;5072428;28;20025;-45
2023/02/23 02:21:03;;;;;;;28.85;15.38;;;6.70;99.90;;;;;;5071279;28;20029;-43
2023/02/23 02:23:54;;;;;;;28.00;15.75;;;6.70;99.90;;;;;;5071985;28;20021;-43
2023/02/23 02:26:33;;;;;;;36.63;17.63;;;6.70;99.90;;;;;;5072435;28;20055;-43
2023/02/23 02:29:20;;;;;;;31.05;17.33;;;6.70;99.90;;;;;;5072485;28;20092;-43
2023/02/23 02:32:14;;;;;;;34.25;16.73;;;6.70;99.90;;;;;;5071843;28;20021;-44
2023/02/23 02:35:17;;;;;;;30.35;16.92;;;6.60;99.90;;;;;;5051587;28;20025;-45
2023/02/23 02:37:49;;;;;;;31.38;17.35;;;6.60;99.90;;;;;;5052135;28;20032;-44
2023/02/23 02:40:21;;;;;;;31.10;16.92;;;6.70;99.90;;;;;;5052298;28;20029;-43
2023/02/23 02:43:28;;;;;;;33.95;18.80;;;6.60;99.90;;;;;;5051411;28;20025;-44
2023/02/23 02:46:19;;;;;;;34.47;18.00;;;6.60;99.90;;;;;;5051596;28;20029;-43
2023/02/23 02:48:56;;;;;;;31.63;17.98;;;6.60;99.90;;;;;;5051122;28;20044;-45
2023/02/23 02:51:56;;;;;;;33.95;17.70;;;6.60;99.90;;;;;;5051808;28;20074;-45
2023/02/23 02:54:37;;;;;;;37.88;19.42;;;6.60;99.90;;;;;;5051472;28;20017;-45
2023/02/23 02:57:05;;;;;;;31.73;17.50;;;6.60;99.90;;;;;;5051685;28;20134;-44
2023/02/23 04:18:33;;;;;;;86.40;41.17;;;6.80;99.90;;;;;;5050336;28;20425;-44
2023/02/23 04:21:00;;;;;;;67.65;37.22;;;6.90;99.90;;;;;;5049162;28;20017;-42
2023/02/23 04:23:26;;;;;;;70.07;38.08;;;7.00;99.90;;;;;;5049244;28;20028;-42
2023/02/23 04:25:52;;;;;;;68.95;35.90;;;7.10;99.90;;;;;;5049943;28;20025;-43
2023/02/23 04:28:19;;;;;;;71.10;38.83;;;7.10;99.90;;;;;;5048020;28;20497;-43
2023/02/23 04:30:45;;;;;;;77.50;39.60;;;7.10;99.90;;;;;;5049739;28;20746;-43
2023/02/23 04:33:10;;;;;;;81.38;38.58;;;7.20;99.90;;;;;;5049634;28;20147;-44
2023/02/23 04:35:36;;;;;;;76.63;38.15;;;7.20;99.90;;;;;;5050221;28;20486;-43
2023/02/23 04:38:03;;;;;;;73.53;38.45;;;7.20;99.90;;;;;;5048675;28;20032;-45
2023/02/23 04:40:28;;;;;;;81.50;39.95;;;7.20;99.90;;;;;;5050111;28;20405;-43
2023/02/23 04:42:55;;;;;;;77.55;41.13;;;7.20;99.90;;;;;;5049024;28;20103;-43
2023/02/23 04:45:21;;;;;;;76.80;40.25;;;7.20;99.90;;;;;;5049222;28;20096;-43
2023/02/23 04:47:47;;;;;;;82.32;41.58;;;7.30;99.90;;;;;;5049363;28;20017;-43
2023/02/23 04:50:13;;;;;;;77.63;39.70;;;7.30;99.90;;;;;;5049801;28;20031;-44
2023/02/23 04:52:39;;;;;;;75.20;41.03;;;7.30;99.90;;;;;;5049536;28;20128;-45
2023/02/23 04:55:07;;;;;;;85.10;41.90;;;7.20;99.90;;;;;;5049585;28;20033;-44
2023/02/23 04:57:33;;;;;;;80.20;41.53;;;7.30;99.90;;;;;;5049434;28;20264;-44
2023/02/23 04:59:59;;;;;;;79.13;40.45;;;7.30;99.90;;;;;;5048902;28;20394;-43
2023/02/23 05:02:25;;;;;;;70.65;39.35;;;7.30;99.90;;;;;;5048982;28;20025;-42
2023/02/23 05:04:51;;;;;;;75.63;39.75;;;7.30;99.90;;;;;;5049369;28;20679;-44
2023/02/23 05:07:16;;;;;;;76.32;41.65;;;7.30;99.90;;;;;;5049225;28;20064;-43
2023/02/23 05:09:42;;;;;;;80.45;42.20;;;7.20;99.90;;;;;;5049637;28;20103;-45
2023/02/23 05:12:08;;;;;;;76.07;40.45;;;7.20;99.90;;;;;;5049057;28;20017;-46
2023/02/23 05:14:33;;;;;;;76.15;40.92;;;7.20;99.90;;;;;;5048555;28;20132;-44
2023/02/23 05:16:59;;;;;;;83.65;43.33;;;7.20;99.90;;;;;;5048925;28;20031;-43
2023/02/23 05:19:25;;;;;;;79.60;44.88;;;7.20;99.90;;;;;;5049158;28;20094;-43
2023/02/23 05:21:50;;;;;;;83.32;43.42;;;7.20;99.90;;;;;;5049046;28;20083;-45
2023/02/23 05:24:17;;;;;;;88.13;46.80;;;7.20;99.90;;;;;;5048983;28;20037;-43
2023/02/23 05:26:44;;;;;;;85.43;44.22;;;7.20;99.90;;;;;;5048969;28;20029;-44
2023/02/23 05:29:09;;;;;;;89.80;45.08;;;7.20;99.90;;;;;;5048844;28;20025;-42
2023/02/23 05:31:35;;;;;;;92.82;48.75;;;7.20;99.90;;;;;;5048749;28;20036;-43
2023/02/23 05:34:01;;;;;;;86.90;45.15;;;7.20;99.90;;;;;;5048674;28;20020;-44
2023/02/23 05:36:27;;;;;;;92.53;46.55;;;7.20;99.90;;;;;;5049276;28;20021;-45
2023/02/23 05:38:53;;;;;;;89.25;48.50;;;7.10;99.90;;;;;;5048929;28;20024;-42
2023/02/23 05:41:20;;;;;;;95.35;50.72;;;7.20;99.90;;;;;;5049167;28;20035;-43
2023/02/23 05:43:46;;;;;;;104.53;53.65;;;7.10;99.90;;;;;;5047911;28;20090;-44
2023/02/23 05:46:15;;;;;;;92.88;49.33;;;7.10;99.90;;;;;;5048458;28;20068;-43
2023/02/23 05:48:42;;;;;;;63.95;33.28;;;7.10;99.90;;;;;;5048957;28;20048;-44
2023/02/23 05:51:10;;;;;;;105.90;53.70;;;7.10;99.90;;;;;;5048516;28;20052;-44
2023/02/23 05:53:36;;;;;;;100.35;52.88;;;7.10;99.90;;;;;;5048024;28;20444;-44
2023/02/23 05:56:03;;;;;;;97.28;52.45;;;7.20;99.90;;;;;;5048601;28;20017;-44
2023/02/23 05:58:29;;;;;;;106.82;53.95;;;7.10;99.90;;;;;;5048869;28;20561;-43
2023/02/23 06:00:54;;;;;;;109.85;55.50;;;7.10;99.90;;;;;;5048299;28;20119;-45
2023/02/23 06:03:21;;;;;;;96.72;53.30;;;7.10;99.90;;;;;;5048230;28;20476;-43
2023/02/23 06:05:54;;;;;;;104.03;53.95;;;7.10;99.90;;;;;;5048850;28;20029;-43
2023/02/23 06:08:20;;;;;;;107.95;57.33;;;7.10;99.90;;;;;;5047450;28;20029;-44
2023/02/23 06:10:46;;;;;;;100.10;52.45;;;7.10;99.90;;;;;;5048328;28;20028;-43
2023/02/23 06:13:12;;;;;;;102.88;55.20;;;7.10;99.90;;;;;;5047970;28;20033;-42
2023/02/23 06:15:38;;;;;;;110.25;57.30;;;7.10;99.90;;;;;;5047559;28;20056;-43
2023/02/23 06:18:04;;;;;;;100.50;53.70;;;7.10;99.90;;;;;;5047064;28;20504;-44
2023/02/23 06:20:30;;;;;;;100.80;54.05;;;7.10;99.90;;;;;;5048532;28;20032;-43
2023/02/23 06:22:56;;;;;;;105.43;54.67;;;7.10;99.90;;;;;;5047788;28;20108;-44
2023/02/23 06:25:22;;;;;;;102.82;53.38;;;7.10;99.90;;;;;;5047781;28;20028;-42
2023/02/23 06:27:47;;;;;;;106.88;55.33;;;7.10;99.90;;;;;;5047407;28;20025;-45
2023/02/23 06:30:13;;;;;;;103.05;53.42;;;7.10;99.90;;;;;;5046769;28;20537;-46
2023/02/23 06:32:39;;;;;;;100.97;55.28;;;7.10;99.90;;;;;;5046401;28;20028;-43
2023/02/23 06:35:06;;;;;;;113.60;59.83;;;7.10;99.90;;;;;;5046841;28;20028;-44
2023/02/23 06:37:33;;;;;;;112.00;58.53;;;7.10;99.90;;;;;;5046076;28;20025;-43
2023/02/23 06:39:58;;;;;;;117.10;56.88;;;7.10;99.90;;;;;;5047865;28;20082;-45
2023/02/23 06:42:24;;;;;;;115.10;57.88;;;7.20;99.90;;;;;;5047784;28;20025;-44
2023/02/23 06:44:49;;;;;;;101.15;54.97;;;7.20;99.90;;;;;;5048223;28;20021;-43
2023/02/23 06:47:15;;;;;;;114.53;57.35;;;7.20;99.90;;;;;;5047828;28;20166;-44
2023/02/23 06:49:41;;;;;;;108.22;58.03;;;7.30;99.90;;;;;;5048124;28;20429;-42
2023/02/23 06:52:08;;;;;;;117.15;60.63;;;7.30;99.90;;;;;;5051834;28;20021;-46
2023/02/23 06:54:34;;;;;;;122.05;57.80;;;7.30;99.90;;;;;;5051457;28;20021;-46
2023/02/23 06:56:59;;;;;;;110.80;59.25;;;7.40;99.90;;;;;;5051511;28;20028;-42
2023/02/23 06:59:25;;;;;;;110.70;56.90;;;7.40;99.90;;;;;;5051263;28;20387;-46
2023/02/23 07:01:51;;;;;;;105.05;54.75;;;7.40;99.90;;;;;;5051179;28;20462;-43
2023/02/23 07:04:16;;;;;;;109.93;56.25;;;7.40;99.90;;;;;;5051180;28;20075;-44
2023/02/23 07:06:43;;;;;;;111.20;52.30;;;7.40;99.90;;;;;;5051604;28;20033;-43
2023/02/23 07:09:08;;;;;;;105.15;55.20;;;7.50;99.90;;;;;;5051772;28;20475;-45
2023/02/23 07:11:34;;;;;;;104.97;54.30;;;7.50;99.90;;;;;;5051529;28;20070;-43
2023/02/23 07:14:00;;;;;;;103.10;53.58;;;7.60;99.90;;;;;;5050852;28;20311;-44
2023/02/23 07:16:27;;;;;;;97.93;50.80;;;7.70;99.90;;;;;;5049313;28;20029;-44
2023/02/23 07:18:54;;;;;;;93.88;52.53;;;7.70;99.90;;;;;;5050441;28;20184;-46
2023/02/23 07:21:19;;;;;;;96.32;50.70;;;7.70;99.90;;;;;;5050700;28;20039;-43
2023/02/23 07:23:48;;;;;;;101.93;55.22;;;7.80;99.90;;;;;;5049952;28;20112;-46
2023/02/23 07:26:15;;;;;;;94.80;52.95;;;7.80;99.90;;;;;;5049640;28;20406;-44
2023/02/23 07:28:42;;;;;;;102.00;55.80;;;7.80;99.90;;;;;;5050910;28;20057;-43
2023/02/23 07:31:07;;;;;;;100.55;54.33;;;7.80;99.90;;;;;;5050571;28;20032;-43
2023/02/23 07:33:33;;;;;;;93.75;52.47;;;7.90;99.90;;;;;;5050316;28;20082;-44
2023/02/23 07:35:58;;;;;;;94.38;51.85;;;8.00;99.90;;;;;;5050519;28;20383;-44
2023/02/23 07:38:24;;;;;;;94.18;52.65;;;8.10;99.90;;;;;;5050255;28;20445;-43
2023/02/23 07:40:50;;;;;;;91.10;50.55;;;8.10;99.90;;;;;;5050880;28;20432;-43
2023/02/23 07:43:16;;;;;;;90.90;50.90;;;8.20;99.90;;;;;;5049730;28;20108;-46
2023/02/23 07:45:42;;;;;;;103.78;55.03;;;8.30;99.90;;;;;;5050816;28;20100;-43
2023/02/23 07:48:08;;;;;;;90.25;50.67;;;8.30;99.90;;;;;;5051152;28;20473;-42
2023/02/23 07:50:34;;;;;;;90.45;49.63;;;8.40;99.90;;;;;;5049367;28;20116;-42
2023/02/23 07:53:00;;;;;;;88.88;50.65;;;8.50;99.90;;;;;;5049619;28;20021;-43
2023/02/23 07:55:26;;;;;;;93.78;52.00;;;8.50;99.90;;;;;;5050180;28;20031;-43
2023/02/23 07:57:51;;;;;;;91.15;51.63;;;8.50;99.90;;;;;;5050539;28;20032;-43
2023/02/23 08:00:17;;;;;;;101.28;53.15;;;8.60;99.90;;;;;;5049487;28;20734;-46
2023/02/23 08:02:43;;;;;;;98.00;53.50;;;8.70;99.90;;;;;;5049500;28;20021;-42
2023/02/23 08:05:09;;;;;;;88.00;50.10;;;8.70;99.90;;;;;;5049928;28;20031;-45
2023/02/23 08:07:34;;;;;;;94.15;53.10;;;8.70;99.90;;;;;;5049783;28;20021;-42
2023/02/23 08:10:00;;;;;;;101.45;53.45;;;8.70;99.90;;;;;;5050480;28;20041;-45
2023/02/23 08:12:25;;;;;;;102.20;56.15;;;8.70;99.90;;;;;;5049720;28;20332;-43
2023/02/23 08:14:52;;;;;;;97.57;53.90;;;8.70;99.90;;;;;;5050496;28;20049;-45
2023/02/23 08:17:18;;;;;;;97.15;51.22;;;8.70;99.90;;;;;;5050226;28;20021;-44
2023/02/23 08:19:43;;;;;;;97.85;55.00;;;8.80;99.90;;;;;;5050056;28;20078;-43
2023/02/23 08:22:09;;;;;;;90.65;51.15;;;8.70;99.90;;;;;;5049127;28;20094;-43
2023/02/23 08:24:35;;;;;;;101.18;52.33;;;8.80;99.90;;;;;;5050319;28;20534;-44
2023/02/23 08:27:02;;;;;;;95.10;53.03;;;8.80;99.90;;;;;;5049995;28;20421;-41
2023/02/23 08:29:27;;;;;;;101.65;55.03;;;8.90;99.90;;;;;;5049793;28;20478;-43
2023/02/23 08:31:54;;;;;;;91.07;52.65;;;8.90;99.90;;;;;;5049693;28;20321;-46
2023/02/23 08:34:21;;;;;;;91.63;52.63;;;8.80;99.90;;;;;;5049450;28;20129;-45
2023/02/23 08:36:47;;;;;;;96.82;55.75;;;8.90;99.90;;;;;;5049460;28;20462;-43
2023/02/23 08:39:13;;;;;;;94.88;52.88;;;8.90;99.90;;;;;;5049768;28;20048;-43
2023/02/23 08:41:39;;;;;;;99.40;55.53;;;8.90;99.90;;;;;;5048237;28;20064;-44
2023/02/23 08:44:05;;;;;;;96.30;52.58;;;8.90;99.90;;;;;;5049603;28;20021;-43
2023/02/23 08:46:30;;;;;;;92.80;52.58;;;8.90;99.90;;;;;;5049529;28;20040;-43
2023/02/23 08:48:56;;;;;;;88.60;50.47;;;8.90;99.90;;;;;;5048023;28;20049;-42
2023/02/23 08:51:22;;;;;;;93.05;53.70;;;8.90;99.90;;;;;;5048017;28;20942;-43
2023/02/23 08:53:48;;;;;;;89.35;50.42;;;9.00;99.90;;;;;;5047792;28;20056;-42
2023/02/23 08:56:14;;;;;;;97.40;53.28;;;9.00;99.90;;;;;;5047018;28;20382;-46
2023/02/23 08:58:40;;;;;;;97.20;54.20;;;9.00;99.90;;;;;;5048097;28;20036;-45
2023/02/23 09:01:05;;;;;;;88.40;52.03;;;9.00;99.90;;;;;;5048157;28;20021;-44
2023/02/23 09:03:31;;;;;;;95.03;52.90;;;9.00;99.90;;;;;;5045999;28;20102;-45
2023/02/23 09:06:04;;;;;;;94.03;51.20;;;9.10;99.90;;;;;;5048334;28;20461;-44
2023/02/23 09:08:30;;;;;;;92.35;49.90;;;9.10;99.90;;;;;;5045902;28;20107;-42
2023/02/23 09:10:55;;;;;;;93.30;51.45;;;9.10;99.90;;;;;;5045163;28;20120;-43
2023/02/23 09:13:21;;;;;;;92.78;50.92;;;9.10;99.90;;;;;;5045316;28;20032;-45
2023/02/23 09:15:46;;;;;;;89.18;50.05;;;9.10;99.90;;;;;;5045581;28;20013;-45
2023/02/23 09:18:13;;;;;;;94.15;52.88;;;9.10;99.90;;;;;;5045522;28;20078;-44
2023/02/23 09:20:43;;;;;;;86.88;47.55;;;9.10;99.90;;;;;;5045854;28;20021;-42
2023/02/23 09:23:11;;;;;;;93.35;51.13;;;9.20;99.90;;;;;;5045005;28;20017;-44
2023/02/23 09:25:44;;;;;;;94.68;51.80;;;9.20;99.90;;;;;;5045641;28;20407;-42
2023/02/23 09:28:14;;;;;;;98.03;51.50;;;9.20;99.90;;;;;;5045697;28;20241;-41
2023/02/23 09:30:41;;;;;;;87.43;50.95;;;9.30;99.90;;;;;;5046993;28;20021;-42
2023/02/23 09:33:07;;;;;;;90.55;51.58;;;9.30;99.90;;;;;;5027600;28;20119;-42
2023/02/23 09:35:34;;;;;;;93.13;52.00;;;9.30;99.90;;;;;;5045607;28;20016;-43
2023/02/23 09:38:02;;;;;;;93.18;51.58;;;9.30;99.90;;;;;;5045307;28;20024;-44
2023/02/23 09:40:46;;;;;;;91.40;50.00;;;9.30;99.90;;;;;;5045902;28;20133;-44
2023/02/23 09:43:33;;;;;;;98.18;53.85;;;9.30;99.90;;;;;;5044883;28;20045;-43
2023/02/23 09:46:28;;;;;;;93.85;53.60;;;9.30;99.90;;;;;;5043222;28;20063;-42
2023/02/23 09:48:55;;;;;;;96.95;51.75;;;9.30;99.90;;;;;;5045340;28;20036;-45
2023/02/23 09:51:22;;;;;;;94.70;52.03;;;9.40;99.90;;;;;;5047034;28;20023;-43
2023/02/23 09:53:58;;;;;;;98.38;55.15;;;9.40;99.90;;;;;;5041707;28;20031;-46
2023/02/23 09:56:35;;;;;;;93.72;52.03;;;9.40;99.90;;;;;;5043996;28;20021;-43
2023/02/23 09:59:04;;;;;;;96.50;52.17;;;9.40;99.90;;;;;;5054672;28;20487;-45
2023/02/23 10:01:42;;;;;;;103.47;55.25;;;9.40;99.90;;;;;;5045977;28;20395;-44
2023/02/23 10:04:21;;;;;;;101.85;53.28;;;9.40;99.90;;;;;;5045290;28;20083;-43
2023/02/23 10:07:15;;;;;;;99.35;53.72;;;9.40;99.90;;;;;;5042047;28;20059;-43
2023/02/23 10:10:01;;;;;;;96.30;50.88;;;9.40;99.90;;;;;;5044346;28;20028;-43
2023/02/23 10:13:08;;;;;;;100.68;52.58;;;9.40;99.90;;;;;;5044121;28;20021;-44
2023/02/23 10:15:59;;;;;;;98.75;51.13;;;9.40;99.90;;;;;;5045211;28;20068;-45
2023/02/23 10:19:02;;;;;;;96.10;51.53;;;9.30;99.90;;;;;;5043248;28;20083;-43
2023/02/23 10:21:39;;;;;;;89.45;49.95;;;9.30;99.90;;;;;;5001104;28;20033;-44
2023/02/23 10:24:18;;;;;;;97.22;52.28;;;9.30;99.90;;;;;;5040138;28;20025;-43
2023/02/23 10:26:55;;;;;;;88.07;48.80;;;9.30;99.90;;;;;;5049740;28;20106;-46
2023/02/23 10:29:43;;;;;;;92.05;50.78;;;9.30;99.90;;;;;;5048777;28;20279;-45
2023/02/23 10:32:46;;;;;;;90.60;47.85;;;9.30;99.90;;;;;;5046585;28;20025;-43
2023/02/23 10:35:15;;;;;;;92.80;49.03;;;9.30;99.90;;;;;;5048921;28;20017;-42
2023/02/23 10:37:41;;;;;;;89.50;47.40;;;9.30;99.90;;;;;;5048258;28;20056;-44
2023/02/23 10:40:14;;;;;;;82.13;45.63;;;9.30;99.90;;;;;;5049486;28;20060;-43
2023/02/23 10:42:40;;;;;;;83.10;47.90;;;9.30;99.90;;;;;;5047907;28;20021;-43
2023/02/23 10:45:17;;;;;;;99.35;47.50;;;9.30;99.90;;;;;;5048486;28;20402;-42
2023/02/23 10:47:44;;;;;;;86.22;46.83;;;9.30;99.90;;;;;;5045391;28;20091;-45
2023/02/23 10:50:11;;;;;;;82.93;45.05;;;9.30;99.90;;;;;;5047407;28;20029;-42
2023/02/23 10:52:47;;;;;;;85.88;46.80;;;9.30;99.90;;;;;;5046203;28;20029;-42
2023/02/23 10:55:30;;;;;;;81.90;45.38;;;9.20;99.90;;;;;;5047650;28;20021;-43
2023/02/23 10:58:17;;;;;;;85.20;46.20;;;9.20;99.90;;;;;;5047725;28;20443;-43
2023/02/23 11:01:14;;;;;;;83.22;43.85;;;9.20;99.90;;;;;;5044846;28;20013;-46
2023/02/23 11:03:41;;;;;;;76.68;42.97;;;9.20;99.90;;;;;;5036790;28;20121;-43
2023/02/23 11:06:26;;;;;;;76.85;41.70;;;9.20;99.90;;;;;;5047997;28;20648;-43
2023/02/23 11:08:51;;;;;;;77.15;42.90;;;9.20;99.90;;;;;;5048327;28;20025;-43
2023/02/23 11:11:27;;;;;;;80.78;43.67;;;9.20;99.90;;;;;;5047617;28;20093;-43
2023/02/23 11:13:53;;;;;;;83.40;42.42;;;9.20;99.90;;;;;;5064204;28;20306;-43
2023/02/23 11:16:37;;;;;;;76.38;41.33;;;9.20;99.90;;;;;;5069835;28;20031;-42
2023/02/23 11:19:06;;;;;;;71.00;38.15;;;9.20;99.90;;;;;;5049998;28;20021;-45
2023/02/23 11:21:34;;;;;;;74.00;39.50;;;9.20;99.90;;;;;;5069111;28;20024;-41
2023/02/23 11:24:25;;;;;;;67.63;37.53;;;9.20;99.90;;;;;;5059900;28;20158;-44
2023/02/23 11:26:53;;;;;;;73.70;40.58;;;9.30;99.90;;;;;;5068254;28;20465;-42
2023/02/23 11:29:25;;;;;;;70.50;38.47;;;9.30;99.90;;;;;;5059517;28;20402;-42
2023/02/23 11:31:55;;;;;;;73.50;39.90;;;9.30;99.90;;;;;;5068901;28;20021;-45
2023/02/23 11:34:30;;;;;;;71.18;38.58;;;9.30;99.90;;;;;;5060304;28;20085;-41
2023/02/23 11:37:06;;;;;;;66.65;38.30;;;9.30;99.90;;;;;;5067938;28;20031;-43
2023/02/23 11:39:33;;;;;;;69.40;36.85;;;9.30;99.90;;;;;;5051245;28;20012;-43
2023/02/23 11:42:18;;;;;;;65.68;36.30;;;9.40;99.90;;;;;;5046245;28;20033;-43
2023/02/23 11:44:49;;;;;;;66.57;36.58;;;9.40;99.90;;;;;;5049058;28;20128;-42
2023/02/23 11:47:18;;;;;;;65.68;37.95;;;9.40;99.90;;;;;;5048927;28;20033;-43
2023/02/23 11:49:45;;;;;;;60.63;34.15;;;9.40;99.90;;;;;;5048736;28;20418;-42
2023/02/23 11:52:20;;;;;;;59.35;34.08;;;9.40;99.90;;;;;;5048046;28;20124;-44
2023/02/23 11:54:56;;;;;;;55.95;32.75;;;9.40;99.90;;;;;;5048977;28;20185;-43
2023/02/23 11:57:28;;;;;;;54.90;32.00;;;9.40;99.90;;;;;;5048867;28;20501;-42
2023/02/23 11:59:56;;;;;;;53.22;31.88;;;9.30;99.90;;;;;;5048713;28;20021;-43
2023/02/23 12:02:30;;;;;;;52.70;30.65;;;9.30;99.90;;;;;;5048436;28;20100;-42
2023/02/23 12:05:17;;;;;;;57.13;33.25;;;9.30;99.90;;;;;;5047509;28;20032;-43
2023/02/23 12:07:53;;;;;;;50.10;29.92;;;9.30;99.90;;;;;;5044704;28;20390;-44
2023/02/23 12:10:40;;;;;;;54.42;31.52;;;9.40;99.90;;;;;;5048866;28;20029;-43
2023/02/23 12:13:38;;;;;;;47.42;29.08;;;9.40;99.90;;;;;;5047938;28;20167;-43
2023/02/23 12:16:11;;;;;;;56.42;32.40;;;9.50;99.90;;;;;;5048477;28;20107;-43
2023/02/23 12:18:43;;;;;;;54.08;31.92;;;9.50;99.90;;;;;;5048135;28;20047;-44
2023/02/23 12:21:25;;;;;;;51.63;32.83;;;9.60;99.90;;;;;;5048232;28;20028;-45
2023/02/23 12:23:59;;;;;;;50.92;29.33;;;9.60;99.90;;;;;;5047801;28;20029;-43
2023/02/23 12:26:27;;;;;;;50.88;31.38;;;9.70;99.90;;;;;;5048022;28;20021;-42
2023/02/23 12:29:03;;;;;;;51.38;30.58;;;9.80;99.90;;;;;;5048553;28;20364;-42
2023/02/23 12:31:42;;;;;;;51.83;32.22;;;9.70;99.90;;;;;;5048331;28;20036;-44
2023/02/23 12:34:27;;;;;;;49.10;29.33;;;9.60;99.90;;;;;;5047713;28;20065;-42
2023/02/23 12:36:59;;;;;;;48.28;29.90;;;9.60;99.90;;;;;;5046867;28;20128;-44
2023/02/23 12:39:34;;;;;;;51.13;31.23;;;9.60;99.90;;;;;;5048203;28;20017;-43
2023/02/23 12:42:15;;;;;;;50.60;30.17;;;9.60;99.90;;;;;;5047963;28;20021;-43
2023/02/23 12:44:49;;;;;;;50.08;31.10;;;9.50;99.90;;;;;;5046871;28;20048;-42
2023/02/23 12:47:29;;;;;;;57.08;33.28;;;9.60;99.90;;;;;;5047637;28;20384;-43
2023/02/23 12:50:12;;;;;;;53.83;32.92;;;9.60;99.90;;;;;;5047627;28;20021;-43
2023/02/23 12:52:56;;;;;;;51.75;31.63;;;9.70;99.90;;;;;;5046834;28;20028;-42
2023/02/23 12:55:40;;;;;;;54.83;33.08;;;9.80;99.90;;;;;;5047140;28;20471;-42
2023/02/23 12:58:35;;;;;;;51.13;32.05;;;9.80;99.90;;;;;;5047461;28;20052;-43
2023/02/23 13:01:30;;;;;;;54.03;31.65;;;9.90;99.90;;;;;;5047544;28;20037;-50
2023/02/23 13:04:08;;;;;;;53.03;31.77;;;10.00;99.90;;;;;;5059774;28;20051;-48
2023/02/23 13:06:36;;;;;;;46.05;29.65;;;10.00;99.90;;;;;;5044176;28;20024;-48
2023/02/23 13:09:32;;;;;;;51.30;31.27;;;10.00;99.90;;;;;;5042435;28;20160;-51
2023/02/23 13:12:18;;;;;;;51.33;31.48;;;10.00;99.90;;;;;;5042929;28;20020;-51
2023/02/23 13:14:51;;;;;;;53.78;32.22;;;9.90;99.90;;;;;;5043754;28;20028;-50
2023/02/23 13:17:41;;;;;;;44.50;30.33;;;9.90;99.90;;;;;;5046239;28;20024;-48
2023/02/23 13:20:20;;;;;;;53.03;32.83;;;9.90;99.90;;;;;;5044547;28;20067;-49
2023/02/23 13:23:19;;;;;;;50.53;31.92;;;9.80;99.90;;;;;;5043486;28;20040;-49
2023/02/23 13:26:12;;;;;;;54.47;32.63;;;9.80;99.90;;;;;;5014672;28;20148;-51
2023/02/23 13:28:46;;;;;;;49.22;29.67;;;9.70;99.90;;;;;;5045124;28;20401;-51
2023/02/23 13:31:23;;;;;;;48.47;29.63;;;9.60;99.90;;;;;;5048724;28;20423;-52
2023/02/23 13:33:49;;;;;;;46.05;30.77;;;9.60;99.90;;;;;;5041692;28;20021;-51
2023/02/23 13:36:16;;;;;;;54.63;32.50;;;9.60;99.90;;;;;;5046196;28;20028;-52
2023/02/23 13:39:15;;;;;;;56.30;34.58;;;9.60;99.90;;;;;;5043721;28;20052;-50
2023/02/23 13:41:57;;;;;;;50.63;31.95;;;9.60;99.90;;;;;;5042876;28;20021;-52
2023/02/23 13:44:32;;;;;;;52.40;31.02;;;9.70;99.90;;;;;;5044338;28;20028;-52
2023/02/23 13:47:35;;;;;;;45.60;29.98;;;9.80;99.90;;;;;;5045403;28;20056;-51
2023/02/23 13:50:17;;;;;;;48.28;31.95;;;9.80;99.90;;;;;;5046133;28;20466;-52
2023/02/23 13:52:45;;;;;;;45.20;28.63;;;9.80;99.90;;;;;;5041325;28;20013;-52
2023/02/23 13:55:50;;;;;;;51.17;31.55;;;9.80;99.90;;;;;;5044200;28;20033;-50
2023/02/23 13:58:23;;;;;;;50.13;30.27;;;9.80;99.90;;;;;;5034018;28;20048;-52
2023/02/23 14:01:13;;;;;;;48.60;29.27;;;9.80;99.90;;;;;;5046041;28;20021;-51
2023/02/23 14:03:59;;;;;;;46.92;29.05;;;9.70;99.90;;;;;;5043297;28;20041;-49
2023/02/23 14:06:28;;;;;;;45.83;27.17;;;9.60;99.90;;;;;;5045331;28;20032;-52
2023/02/23 14:09:20;;;;;;;48.42;29.17;;;9.60;99.90;;;;;;5045684;28;20475;-50
2023/02/23 14:11:54;;;;;;;46.03;29.77;;;9.60;99.90;;;;;;5045250;28;20068;-49
2023/02/23 14:14:29;;;;;;;40.58;26.92;;;9.50;99.90;;;;;;5042474;28;20103;-49
2023/02/23 14:17:13;;;;;;;43.88;27.73;;;9.40;99.90;;;;;;5045463;28;20921;-49
2023/02/23 14:19:43;;;;;;;49.20;29.90;;;9.40;99.90;;;;;;5044739;28;20025;-49